Time;durP1;ratioP1;P1;durP2;ratioP2;P2;SDS_P1;SDS_P2;PMS_P1;PMS_P2;Temp;Humidity;BMP_temperature;BMP_pressure;BME280_temperature;BME280_humidity;BME280_pressure;Samples;Min_cycle;Max_cycle;Signal;HPM_P1;HPM_P2
2023/03/01 00:02:12;;;;;;;28.20;21.03;;;;;;;-2.81;100.00;100369.97;5034557;28;20200;-79
2023/03/01 00:04:39;;;;;;;30.17;20.03;;;;;;;-2.88;100.00;100381.00;5033394;28;20209;-80
2023/03/01 00:07:06;;;;;;;26.30;19.77;;;;;;;-2.83;100.00;100377.09;5033043;28;20194;-81
2023/03/01 00:09:32;;;;;;;27.70;20.43;;;;;;;-2.90;100.00;100380.31;5032630;28;20316;-80
2023/03/01 00:12:02;;;;;;;27.43;20.33;;;;;;;-2.95;100.00;100392.94;5032776;28;20194;-80
2023/03/01 00:14:35;;;;;;;28.87;20.93;;;;;;;-3.02;100.00;100389.91;5032752;28;20191;-80
2023/03/01 00:17:04;;;;;;;28.27;20.40;;;;;;;-2.98;100.00;100386.09;5033950;28;20214;-80
2023/03/01 00:19:37;;;;;;;29.87;21.07;;;;;;;-3.05;100.00;100384.91;5032816;28;20209;-81
2023/03/01 00:22:07;;;;;;;29.07;20.73;;;;;;;-3.01;100.00;100375.03;5034092;28;20205;-79
2023/03/01 00:24:40;;;;;;;29.83;21.40;;;;;;;-2.99;100.00;100367.91;5033824;28;20252;-80
2023/03/01 00:27:09;;;;;;;27.33;21.10;;;;;;;-2.98;100.00;100369.53;5032769;28;20192;-80
2023/03/01 00:29:41;;;;;;;28.93;21.40;;;;;;;-2.94;100.00;100377.06;5039526;28;20185;-80
2023/03/01 00:32:11;;;;;;;30.63;21.43;;;;;;;-2.92;100.00;100382.19;5015548;28;20187;-79
2023/03/01 00:34:40;;;;;;;30.80;21.87;;;;;;;-2.93;100.00;100381.34;5032291;28;20194;-80
2023/03/01 00:37:15;;;;;;;27.27;20.77;;;;;;;-2.80;100.00;100386.53;5032069;28;20194;-78
2023/03/01 00:39:41;;;;;;;29.03;21.47;;;;;;;-2.78;100.00;100385.44;5032631;28;20182;-80
2023/03/01 00:42:08;;;;;;;29.13;21.63;;;;;;;-2.64;100.00;100383.56;5031604;28;20187;-78
2023/03/01 00:44:44;;;;;;;29.27;21.20;;;;;;;-2.59;100.00;100378.81;5033221;28;20209;-80
2023/03/01 00:47:13;;;;;;;31.13;21.10;;;;;;;-2.55;100.00;100373.19;5016144;28;20221;-78
2023/03/01 00:49:40;;;;;;;29.50;22.10;;;;;;;-2.48;100.00;100374.41;5031648;28;20198;-80
2023/03/01 00:52:08;;;;;;;28.10;20.93;;;;;;;-2.40;100.00;100369.41;5035655;28;20205;-80
2023/03/01 00:54:41;;;;;;;27.77;20.40;;;;;;;-2.31;100.00;100363.44;5015503;28;20665;-79
2023/03/01 00:57:08;;;;;;;27.03;20.43;;;;;;;-2.29;100.00;100364.13;5016132;28;20194;-80
2023/03/01 00:59:35;;;;;;;28.93;20.80;;;;;;;-2.25;100.00;100365.59;5032535;28;20603;-81
2023/03/01 01:02:15;;;;;;;29.37;21.37;;;;;;;-2.17;100.00;100354.47;5033267;28;20557;-79
2023/03/01 01:04:41;;;;;;;28.93;20.77;;;;;;;-2.12;100.00;100356.72;5013998;28;20210;-79
2023/03/01 01:07:10;;;;;;;28.40;20.93;;;;;;;-2.05;100.00;100360.56;5015450;28;20620;-80
2023/03/01 01:09:37;;;;;;;27.23;20.67;;;;;;;-2.00;100.00;100351.31;5016193;28;20234;-80
2023/03/01 01:12:04;;;;;;;26.97;21.30;;;;;;;-2.02;100.00;100349.78;5031628;28;20244;-82
2023/03/01 01:14:37;;;;;;;27.20;19.93;;;;;;;-1.94;100.00;100345.59;5032663;28;20206;-79
2023/03/01 01:17:09;;;;;;;26.20;20.13;;;;;;;-1.86;100.00;100355.47;5032823;28;20194;-79
2023/03/01 01:19:39;;;;;;;25.43;20.17;;;;;;;-1.77;100.00;100346.06;5031399;28;20662;-80
2023/03/01 01:22:09;;;;;;;27.63;20.47;;;;;;;-1.74;100.00;100351.03;5034256;28;20201;-81
2023/03/01 01:24:38;;;;;;;29.53;21.20;;;;;;;-1.66;100.00;100336.31;5033999;28;20293;-79
2023/03/01 01:27:07;;;;;;;26.83;21.10;;;;;;;-1.62;100.00;100331.66;5037368;28;20189;-81
2023/03/01 01:29:35;;;;;;;29.47;21.00;;;;;;;-1.60;100.00;100335.00;5038424;28;20186;-79
2023/03/01 01:32:03;;;;;;;31.33;21.73;;;;;;;-1.57;100.00;100329.47;5014795;28;20190;-80
2023/03/01 01:34:30;;;;;;;26.67;20.53;;;;;;;-1.53;100.00;100337.00;5016998;28;20194;-79
2023/03/01 01:37:02;;;;;;;29.50;21.40;;;;;;;-1.49;100.00;100332.31;5001085;28;20293;-79
2023/03/01 01:39:32;;;;;;;29.60;21.83;;;;;;;-1.43;100.00;100330.03;5033219;28;20289;-79
2023/03/01 01:42:01;;;;;;;29.13;21.30;;;;;;;-1.37;100.00;100326.06;5030885;28;20198;-79
2023/03/01 01:44:35;;;;;;;31.67;21.73;;;;;;;-1.37;100.00;100324.28;5034720;28;20297;-80
2023/03/01 01:47:06;;;;;;;27.87;21.70;;;;;;;-1.32;100.00;100331.78;5030996;28;20256;-79
2023/03/01 01:49:57;;;;;;;26.60;20.73;;;;;;;-1.28;100.00;100330.56;5030659;28;20275;-80
2023/03/01 01:52:31;;;;;;;29.23;21.77;;;;;;;-1.24;100.00;100325.88;5016990;28;20588;-78
2023/03/01 01:55:20;;;;;;;31.03;22.20;;;;;;;-1.23;100.00;100322.28;5030651;28;20259;-80
2023/03/01 01:57:53;;;;;;;28.93;22.00;;;;;;;-1.17;100.00;100325.25;5029871;28;20312;-80
2023/03/01 02:00:23;;;;;;;28.20;20.83;;;;;;;-1.14;100.00;100322.34;5038663;28;20222;-79
2023/03/01 02:03:08;;;;;;;26.03;20.80;;;;;;;-1.10;100.00;100322.94;5022556;28;20722;-78
2023/03/01 02:05:58;;;;;;;28.10;21.10;;;;;;;-1.06;100.00;100324.34;5019276;28;20282;-79
2023/03/01 02:08:31;;;;;;;29.40;21.63;;;;;;;-1.06;100.00;100319.06;5015081;28;20233;-80
2023/03/01 02:11:04;;;;;;;27.40;20.07;;;;;;;-1.01;100.00;100319.53;5021044;28;20269;-80
2023/03/01 02:13:33;;;;;;;27.33;20.93;;;;;;;-1.00;100.00;100322.03;5041584;28;20190;-79
2023/03/01 02:16:04;;;;;;;27.37;20.03;;;;;;;-0.95;100.00;100319.00;5019437;28;20194;-79
2023/03/01 02:18:33;;;;;;;28.80;20.77;;;;;;;-0.91;100.00;100309.91;5036147;28;20194;-79
2023/03/01 02:21:10;;;;;;;28.73;20.80;;;;;;;-0.85;100.00;100312.00;5035090;28;20273;-80
2023/03/01 02:23:39;;;;;;;27.37;19.20;;;;;;;-0.76;100.00;100313.88;5034790;28;20252;-79
2023/03/01 02:26:15;;;;;;;26.47;20.10;;;;;;;-0.72;100.00;100306.53;5030554;28;20206;-79
2023/03/01 02:28:47;;;;;;;27.33;20.57;;;;;;;-0.74;100.00;100308.44;5038142;28;20212;-79
2023/03/01 02:34:07;;;;;;;27.73;20.07;;;;;;;-0.76;100.00;100311.22;5036315;28;20628;-80
2023/03/01 02:36:37;;;;;;;25.00;20.07;;;;;;;-0.71;100.00;100298.53;5035375;28;20202;-80
2023/03/01 02:39:06;;;;;;;26.43;19.57;;;;;;;-0.62;100.00;100296.88;5014744;28;20273;-78
2023/03/01 02:41:37;;;;;;;25.77;20.03;;;;;;;-0.62;100.00;100292.47;5034731;28;20570;-79
2023/03/01 02:44:07;;;;;;;26.13;19.80;;;;;;;-0.65;100.00;100291.88;5015583;28;20202;-79
2023/03/01 02:46:46;;;;;;;26.23;20.13;;;;;;;-0.63;100.00;100285.53;5035427;28;20221;-79
2023/03/01 02:49:34;;;;;;;24.33;19.37;;;;;;;-0.61;100.00;100302.03;5034368;28;20204;-79
2023/03/01 02:52:34;;;;;;;26.37;20.27;;;;;;;-0.53;100.00;100289.03;5037581;28;20268;-79
2023/03/01 02:55:14;;;;;;;26.87;20.40;;;;;;;-0.53;100.00;100283.78;5007515;28;20242;-80
2023/03/01 02:57:50;;;;;;;26.10;19.77;;;;;;;-0.53;100.00;100289.03;5047242;28;20583;-80
2023/03/01 03:00:27;;;;;;;24.77;18.93;;;;;;;-0.52;100.00;100276.72;5037005;28;20239;-80
2023/03/01 03:02:57;;;;;;;27.00;19.73;;;;;;;-0.49;100.00;100274.63;5024189;28;20209;-80
2023/03/01 03:05:29;;;;;;;24.73;19.27;;;;;;;-0.51;100.00;100275.72;5018456;28;20218;-79
2023/03/01 03:07:58;;;;;;;25.90;19.83;;;;;;;-0.49;100.00;100276.44;5043194;28;20303;-80
2023/03/01 03:10:31;;;;;;;24.33;19.53;;;;;;;-0.49;100.00;100277.28;5027732;28;20198;-78
2023/03/01 03:13:00;;;;;;;22.53;18.33;;;;;;;-0.45;100.00;100267.31;5034675;28;20698;-78
2023/03/01 03:15:29;;;;;;;26.67;19.60;;;;;;;-0.40;100.00;100270.38;5027139;28;20244;-80
2023/03/01 03:17:57;;;;;;;26.13;19.27;;;;;;;-0.30;100.00;100265.13;5028226;28;20202;-79
2023/03/01 03:20:28;;;;;;;24.10;19.47;;;;;;;-0.24;100.00;100270.69;5033592;28;20186;-79
2023/03/01 03:23:06;;;;;;;24.90;19.93;;;;;;;-0.29;100.00;100272.06;5034495;28;20225;-82
2023/03/01 03:25:39;;;;;;;24.40;19.30;;;;;;;-0.30;100.00;100271.22;5033437;28;20206;-79
2023/03/01 03:28:11;;;;;;;27.50;19.80;;;;;;;-0.28;100.00;100268.47;5032728;28;20796;-80
2023/03/01 03:30:39;;;;;;;24.20;19.17;;;;;;;-0.27;100.00;100267.47;5039963;28;20277;-79
2023/03/01 03:33:10;;;;;;;24.67;18.70;;;;;;;-0.28;100.00;100261.38;5033749;28;20194;-80
2023/03/01 03:35:44;;;;;;;24.60;19.53;;;;;;;-0.23;100.00;100263.59;5016889;28;20285;-82
2023/03/01 03:38:15;;;;;;;23.23;18.47;;;;;;;-0.20;100.00;100261.56;5017023;28;20236;-81
2023/03/01 03:40:54;;;;;;;26.10;19.37;;;;;;;-0.20;100.00;100253.66;5036677;28;20281;-78
2023/03/01 03:43:23;;;;;;;24.77;19.97;;;;;;;-0.22;100.00;100255.56;5019683;28;20234;-79
2023/03/01 03:45:50;;;;;;;23.67;19.03;;;;;;;-0.19;100.00;100260.59;5034708;28;20650;-80
2023/03/01 03:48:20;;;;;;;23.13;19.60;;;;;;;-0.21;100.00;100257.25;5044090;28;20198;-78
2023/03/01 03:50:54;;;;;;;24.33;20.23;;;;;;;-0.23;100.00;100247.81;5044366;28;20190;-79
2023/03/01 03:53:26;;;;;;;26.43;18.57;;;;;;;-0.17;100.00;100263.06;5049323;28;20198;-79
2023/03/01 03:55:53;;;;;;;26.33;19.63;;;;;;;-0.15;100.00;100263.78;5001132;28;20788;-80
2023/03/01 03:58:23;;;;;;;24.10;18.50;;;;;;;-0.06;100.00;100255.06;5042794;28;20194;-80
2023/03/01 04:00:55;;;;;;;24.33;18.73;;;;;;;-0.08;100.00;100252.56;5019958;28;20222;-80
2023/03/01 04:03:25;;;;;;;25.63;19.43;;;;;;;-0.05;100.00;100256.75;5042573;28;20799;-81
2023/03/01 04:05:54;;;;;;;24.67;18.63;;;;;;;-0.05;100.00;100260.19;5043801;28;20208;-79
2023/03/01 04:08:24;;;;;;;24.47;18.17;;;;;;;-0.06;100.00;100255.91;5032437;28;20300;-79
2023/03/01 04:10:53;;;;;;;24.37;19.40;;;;;;;-0.04;100.00;100250.47;5013740;28;20300;-79
2023/03/01 04:13:22;;;;;;;24.70;19.10;;;;;;;-0.05;100.00;100254.09;5025829;28;20236;-79
2023/03/01 04:15:52;;;;;;;27.40;19.47;;;;;;;-0.02;100.00;100259.09;5044615;28;20202;-81
2023/03/01 04:18:24;;;;;;;29.17;19.80;;;;;;;-0.06;100.00;100255.06;5024607;28;20205;-81
2023/03/01 04:20:52;;;;;;;23.63;19.27;;;;;;;-0.03;100.00;100262.69;5016687;28;20613;-80
2023/03/01 04:23:20;;;;;;;24.83;19.87;;;;;;;-0.02;100.00;100259.09;5032291;28;20285;-80
2023/03/01 04:25:54;;;;;;;28.20;20.17;;;;;;;-0.03;100.00;100252.16;5033852;28;20241;-80
2023/03/01 04:28:26;;;;;;;27.53;20.00;;;;;;;0.08;100.00;100256.47;5031803;28;20221;-81
2023/03/01 04:30:57;;;;;;;29.97;19.60;;;;;;;0.08;100.00;100267.00;5028915;28;20658;-79
2023/03/01 04:33:25;;;;;;;27.13;19.53;;;;;;;0.12;100.00;100261.31;5015218;28;20628;-79
2023/03/01 04:35:54;;;;;;;24.63;18.87;;;;;;;0.13;100.00;100263.00;5031747;28;20285;-80
2023/03/01 04:38:21;;;;;;;25.60;19.63;;;;;;;-0.03;100.00;100268.78;5031764;28;20203;-81
2023/03/01 04:40:51;;;;;;;27.00;20.63;;;;;;;0.02;100.00;100265.75;5033194;28;20190;-79
2023/03/01 04:43:18;;;;;;;26.97;20.47;;;;;;;0.01;100.00;100266.69;5015912;28;20200;-81
2023/03/01 04:45:48;;;;;;;27.60;19.77;;;;;;;-0.03;100.00;100266.16;5033699;28;20206;-80
2023/03/01 04:48:19;;;;;;;26.93;19.87;;;;;;;-0.02;100.00;100267.00;5031990;28;20190;-80
2023/03/01 04:50:49;;;;;;;25.80;19.70;;;;;;;0.03;100.00;100274.47;5033892;28;20673;-80
2023/03/01 04:53:18;;;;;;;26.63;19.37;;;;;;;0.01;100.00;100277.25;5047543;28;20208;-80
2023/03/01 04:55:45;;;;;;;28.37;20.23;;;;;;;0.13;100.00;100277.97;5033430;28;20564;-80
2023/03/01 04:58:14;;;;;;;24.83;20.20;;;;;;;0.11;100.00;100279.88;5015422;28;20182;-79
2023/03/01 05:00:45;;;;;;;27.37;19.93;;;;;;;0.19;100.00;100287.94;5031174;28;20268;-80
2023/03/01 05:03:17;;;;;;;26.07;19.37;;;;;;;0.22;100.00;100279.78;5031577;28;20293;-79
2023/03/01 05:05:46;;;;;;;26.97;19.17;;;;;;;0.30;100.00;100293.94;5031562;28;20210;-79
2023/03/01 05:08:17;;;;;;;25.80;19.17;;;;;;;0.31;100.00;100282.41;5031319;28;20312;-79
2023/03/01 05:10:53;;;;;;;25.87;19.00;;;;;;;0.28;100.00;100285.31;5031803;28;20272;-79
2023/03/01 05:13:20;;;;;;;25.23;19.30;;;;;;;0.30;100.00;100285.19;5019188;28;20741;-79
2023/03/01 05:15:58;;;;;;;26.23;19.50;;;;;;;0.30;100.00;100283.38;5037080;28;20193;-80
2023/03/01 05:18:31;;;;;;;24.07;19.03;;;;;;;0.34;100.00;100287.41;5031609;28;20650;-80
2023/03/01 05:21:05;;;;;;;25.73;19.47;;;;;;;0.33;100.00;100280.47;5031344;28;20205;-81
2023/03/01 05:23:38;;;;;;;26.83;19.63;;;;;;;0.35;100.00;100283.81;5000880;28;20213;-79
2023/03/01 05:26:06;;;;;;;24.77;19.13;;;;;;;0.37;100.00;100288.94;5044087;28;20217;-80
2023/03/01 05:29:05;;;;;;;27.17;19.80;;;;;;;0.37;100.00;100294.22;5014337;28;20260;-79
2023/03/01 05:31:32;;;;;;;24.80;19.67;;;;;;;0.43;100.00;100293.63;5031148;28;20233;-81
2023/03/01 05:34:03;;;;;;;26.13;19.63;;;;;;;0.39;100.00;100289.63;5032389;28;20186;-79
2023/03/01 05:36:30;;;;;;;24.17;19.23;;;;;;;0.42;100.00;100292.00;5031806;28;20201;-80
2023/03/01 05:38:57;;;;;;;27.43;20.23;;;;;;;0.49;100.00;100295.72;5031111;28;20272;-80
2023/03/01 05:41:30;;;;;;;27.77;20.87;;;;;;;0.53;100.00;100298.91;5032569;28;20277;-79
2023/03/01 05:43:58;;;;;;;25.37;19.57;;;;;;;0.47;100.00;100288.94;5032402;28;20214;-79
2023/03/01 05:46:25;;;;;;;25.97;19.77;;;;;;;0.53;100.00;100291.00;5033930;28;20226;-79
2023/03/01 05:48:55;;;;;;;25.17;20.47;;;;;;;0.55;100.00;100292.53;5034794;28;20204;-79
2023/03/01 05:51:26;;;;;;;27.10;20.23;;;;;;;0.52;100.00;100287.53;5035244;28;20268;-81
2023/03/01 05:53:53;;;;;;;27.23;19.80;;;;;;;0.56;100.00;100291.56;5028960;28;20332;-79
2023/03/01 05:56:24;;;;;;;26.13;20.27;;;;;;;0.56;100.00;100296.03;5033224;28;20198;-81
2023/03/01 05:58:51;;;;;;;26.70;20.27;;;;;;;0.65;100.00;100296.03;5028990;28;20209;-80
2023/03/01 06:01:21;;;;;;;25.27;19.07;;;;;;;0.63;100.00;100302.38;5031742;28;20228;-78
2023/03/01 06:03:50;;;;;;;29.60;20.63;;;;;;;0.61;100.00;100305.16;5031543;28;20208;-79
2023/03/01 06:06:17;;;;;;;25.07;19.47;;;;;;;0.64;100.00;100304.91;5031399;28;20222;-80
2023/03/01 06:08:48;;;;;;;24.70;19.57;;;;;;;0.70;100.00;100306.16;5031684;28;20724;-80
2023/03/01 06:11:20;;;;;;;28.80;21.63;;;;;;;0.72;100.00;100305.03;5028428;28;20682;-80
2023/03/01 06:13:51;;;;;;;28.43;21.27;;;;;;;0.80;100.00;100309.59;5035654;28;20198;-80
2023/03/01 06:16:21;;;;;;;29.83;21.77;;;;;;;0.84;100.00;100306.53;5040012;28;20209;-80
2023/03/01 06:18:55;;;;;;;27.10;20.37;;;;;;;0.88;100.00;100307.94;5038513;28;20231;-81
2023/03/01 06:21:28;;;;;;;28.53;21.43;;;;;;;0.94;100.00;100297.75;5039823;28;20277;-79
2023/03/01 06:23:59;;;;;;;31.50;20.77;;;;;;;0.91;100.00;100309.44;5029978;28;20186;-79
2023/03/01 06:26:28;;;;;;;28.67;21.00;;;;;;;0.98;100.00;100302.59;5033688;28;20205;-79
2023/03/01 06:28:55;;;;;;;28.93;22.00;;;;;;;1.06;100.00;100309.84;5013981;28;20725;-79
2023/03/01 06:31:30;;;;;;;29.87;22.40;;;;;;;1.04;100.00;100309.97;5035126;28;20197;-79
2023/03/01 06:34:01;;;;;;;28.87;22.30;;;;;;;1.13;100.00;100313.56;5019090;28;20650;-81
2023/03/01 06:36:31;;;;;;;31.60;22.27;;;;;;;1.13;100.00;100308.28;5034768;28;20541;-80
2023/03/01 06:38:58;;;;;;;29.07;22.20;;;;;;;1.18;100.00;100311.31;5017835;28;20198;-80
2023/03/01 06:41:25;;;;;;;32.07;22.30;;;;;;;1.18;100.00;100314.78;5035433;28;20288;-79
2023/03/01 06:44:02;;;;;;;32.87;23.53;;;;;;;1.24;100.00;100306.31;5036869;28;20205;-79
2023/03/01 06:46:29;;;;;;;32.93;24.03;;;;;;;1.43;100.00;100305.41;5036745;28;20690;-80
2023/03/01 06:48:59;;;;;;;31.90;23.30;;;;;;;1.56;100.00;100315.66;5034602;28;20213;-81
2023/03/01 06:51:30;;;;;;;31.57;21.97;;;;;;;1.72;100.00;100318.50;5039120;28;20194;-80
2023/03/01 06:53:56;;;;;;;27.90;22.00;;;;;;;1.83;100.00;100322.75;5037092;28;20186;-80
2023/03/01 06:56:31;;;;;;;30.97;24.27;;;;;;;1.97;100.00;100312.50;5042062;28;20209;-80
2023/03/01 06:59:02;;;;;;;34.50;24.20;;;;;;;2.08;100.00;100322.06;5016427;28;20601;-81
2023/03/01 07:01:31;;;;;;;34.80;24.83;;;;;;;2.14;100.00;100319.66;5039972;28;20317;-78
2023/03/01 07:03:58;;;;;;;34.90;24.80;;;;;;;2.10;100.00;100315.63;5040653;28;20213;-81
2023/03/01 07:06:25;;;;;;;32.67;23.90;;;;;;;2.13;100.00;100319.81;5042088;28;20221;-79
2023/03/01 07:08:56;;;;;;;32.73;24.90;;;;;;;2.16;100.00;100322.13;5036572;28;20582;-79
2023/03/01 07:11:26;;;;;;;34.10;24.60;;;;;;;2.25;100.00;100320.41;5041197;28;20240;-81
2023/03/01 07:13:53;;;;;;;32.83;23.87;;;;;;;2.29;100.00;100317.31;5035213;28;20608;-81
2023/03/01 07:16:23;;;;;;;33.03;24.80;;;;;;;2.32;100.00;100321.50;5036353;28;20317;-80
2023/03/01 07:18:50;;;;;;;32.23;23.57;;;;;;;2.40;100.00;100314.47;5035336;28;20190;-83
2023/03/01 07:21:18;;;;;;;36.33;26.13;;;;;;;2.49;100.00;100310.91;5033854;28;20194;-81
2023/03/01 07:24:08;;;;;;;51.50;35.37;;;;;;;2.57;100.00;100321.56;5033220;28;20293;-79
2023/03/01 07:26:35;;;;;;;40.50;29.93;;;;;;;2.43;100.00;100321.25;5033837;28;20321;-79
2023/03/01 07:29:06;;;;;;;33.27;25.40;;;;;;;2.38;100.00;100316.41;5037170;28;20208;-80
2023/03/01 07:31:33;;;;;;;33.30;24.87;;;;;;;2.56;100.00;100319.09;5034035;28;20199;-82
2023/03/01 07:34:00;;;;;;;32.23;24.70;;;;;;;2.66;99.72;100311.88;5033843;28;20190;-81
2023/03/01 07:36:34;;;;;;;34.83;24.83;;;;;;;2.73;100.00;100314.75;5033716;28;20210;-82
2023/03/01 07:39:06;;;;;;;33.03;25.13;;;;;;;2.87;100.00;100320.34;5035298;28;20198;-83
2023/03/01 07:41:37;;;;;;;32.87;25.33;;;;;;;2.98;100.00;100321.91;5039556;28;20205;-82
2023/03/01 07:44:06;;;;;;;34.63;25.47;;;;;;;3.03;100.00;100324.94;5045502;28;20201;-81
2023/03/01 07:46:34;;;;;;;34.40;25.73;;;;;;;3.15;100.00;100322.84;5044140;28;20218;-82
2023/03/01 07:49:04;;;;;;;32.33;24.97;;;;;;;3.29;100.00;100317.00;5034523;28;20733;-79
2023/03/01 07:51:32;;;;;;;35.77;25.77;;;;;;;3.48;99.21;100317.59;5042296;28;20194;-80
2023/03/01 07:53:59;;;;;;;31.73;24.90;;;;;;;3.73;97.58;100315.09;5049495;28;20185;-80
2023/03/01 07:56:29;;;;;;;33.43;25.30;;;;;;;3.76;96.47;100317.41;5049205;28;20305;-82
2023/03/01 07:58:58;;;;;;;34.97;25.80;;;;;;;3.92;94.40;100312.16;5044730;28;20186;-81
2023/03/01 08:01:48;;;;;;;36.00;25.63;;;;;;;3.89;94.01;100315.13;5037937;28;20213;-80
2023/03/01 08:04:17;;;;;;;34.27;26.23;;;;;;;3.97;93.22;100317.81;5035302;28;20213;-81
2023/03/01 08:06:45;;;;;;;35.77;26.20;;;;;;;3.96;93.15;100317.00;5034564;28;20506;-79
2023/03/01 08:09:13;;;;;;;34.13;25.47;;;;;;;3.99;92.95;100314.03;5033646;28;20230;-80
2023/03/01 08:11:41;;;;;;;34.27;25.97;;;;;;;3.93;91.26;100308.53;5032899;28;20194;-81
2023/03/01 08:14:08;;;;;;;34.37;25.27;;;;;;;3.53;92.52;100317.97;5032351;28;20241;-81
2023/03/01 08:16:36;;;;;;;32.87;25.10;;;;;;;3.61;91.97;100319.81;5033511;28;20186;-80
2023/03/01 08:19:07;;;;;;;32.30;25.83;;;;;;;3.83;92.40;100319.25;5033603;28;20205;-80
2023/03/01 08:21:37;;;;;;;33.10;25.37;;;;;;;4.04;91.92;100315.34;5033634;28;20201;-81
2023/03/01 08:24:07;;;;;;;32.53;25.37;;;;;;;4.23;91.19;100309.78;5033227;28;20190;-81
2023/03/01 08:26:40;;;;;;;33.57;25.63;;;;;;;4.14;90.28;100306.28;5047675;28;20655;-81
2023/03/01 08:29:07;;;;;;;34.00;25.67;;;;;;;4.37;89.87;100314.44;5039707;28;20198;-81
2023/03/01 08:31:42;;;;;;;30.57;23.73;;;;;;;4.73;90.19;100309.66;5043089;28;20197;-81
2023/03/01 08:34:17;;;;;;;32.90;24.40;;;;;;;5.02;89.50;100302.03;5040011;28;20277;-81
2023/03/01 08:36:45;;;;;;;34.73;25.70;;;;;;;5.14;88.78;100302.50;5012996;28;20209;-80
2023/03/01 08:39:18;;;;;;;31.40;25.20;;;;;;;5.21;88.26;100301.69;5034540;28;20662;-79
2023/03/01 08:41:48;;;;;;;32.87;24.73;;;;;;;5.35;85.79;100302.81;5042990;28;20194;-81
2023/03/01 08:44:24;;;;;;;30.97;25.20;;;;;;;5.41;84.83;100304.81;5042514;28;20368;-82
2023/03/01 08:46:55;;;;;;;34.40;25.87;;;;;;;5.59;82.53;100305.41;5031742;28;20220;-79
2023/03/01 08:49:25;;;;;;;33.50;25.90;;;;;;;5.50;81.08;100313.56;5041104;28;20222;-80
2023/03/01 08:51:55;;;;;;;33.37;26.50;;;;;;;5.51;81.07;100300.09;5020542;28;20658;-79
2023/03/01 08:54:22;;;;;;;34.33;25.97;;;;;;;5.81;81.77;100293.19;5040788;28;20269;-82
2023/03/01 08:56:51;;;;;;;32.07;25.67;;;;;;;6.11;79.53;100283.59;5050781;28;20202;-78
2023/03/01 08:59:22;;;;;;;32.07;25.83;;;;;;;6.19;78.63;100271.09;5049302;28;20194;-82
2023/03/01 09:01:53;;;;;;;30.70;25.40;;;;;;;5.90;78.73;100278.06;5038828;28;20276;-80
2023/03/01 09:04:25;;;;;;;32.23;25.63;;;;;;;6.22;78.85;100264.56;5031565;28;20190;-78
2023/03/01 09:06:52;;;;;;;31.03;25.87;;;;;;;6.60;77.88;100265.47;5015226;28;20241;-80
2023/03/01 09:09:27;;;;;;;32.20;25.50;;;;;;;6.76;76.86;100262.69;5031141;28;20262;-79
2023/03/01 09:12:13;;;;;;;33.07;26.43;;;;;;;7.01;76.40;100261.44;5035716;28;20198;-80
2023/03/01 09:14:47;;;;;;;30.77;24.80;;;;;;;7.25;74.93;100256.88;5029268;28;20201;-78
2023/03/01 09:17:21;;;;;;;33.83;25.90;;;;;;;7.48;74.71;100252.28;5032570;28;20213;-79
2023/03/01 09:19:48;;;;;;;31.33;25.90;;;;;;;7.67;73.29;100249.03;5030305;28;20265;-79
2023/03/01 09:22:16;;;;;;;35.47;28.10;;;;;;;7.91;73.00;100245.25;5031143;28;20650;-79
2023/03/01 09:24:43;;;;;;;32.57;26.53;;;;;;;8.06;72.25;100251.38;5031548;28;20289;-79
2023/03/01 09:27:11;;;;;;;31.00;26.20;;;;;;;7.98;71.73;100243.47;5033000;28;20206;-78
2023/03/01 09:29:47;;;;;;;30.73;26.03;;;;;;;8.21;70.29;100243.31;5032745;28;20194;-82
2023/03/01 09:32:14;;;;;;;32.23;24.53;;;;;;;8.12;71.11;100242.59;5015385;28;20195;-80
2023/03/01 09:37:28;;;;;;;29.40;24.83;;;;;;;8.22;70.25;100243.13;5032290;28;20186;-79
2023/03/01 09:39:57;;;;;;;31.23;25.27;;;;;;;8.33;70.57;100241.81;5032921;28;20201;-80
2023/03/01 09:42:30;;;;;;;30.17;24.90;;;;;;;8.55;69.48;100240.81;5036054;28;20283;-82
2023/03/01 09:45:05;;;;;;;28.77;23.83;;;;;;;8.75;68.92;100235.63;5034018;28;20673;-78
2023/03/01 09:47:35;;;;;;;30.17;24.50;;;;;;;8.93;68.65;100224.47;5017174;28;20210;-78
2023/03/01 09:50:17;;;;;;;28.23;24.43;;;;;;;9.12;67.43;100221.09;5038843;28;20205;-80
2023/03/01 09:53:03;;;;;;;27.23;23.33;;;;;;;9.31;67.05;100223.09;5042157;28;20212;-80
2023/03/01 09:55:43;;;;;;;31.23;24.83;;;;;;;9.57;66.88;100214.34;5023475;28;20202;-78
2023/03/01 09:58:38;;;;;;;28.53;24.93;;;;;;;9.72;66.40;100209.69;5030936;28;20198;-78
2023/03/01 10:01:32;;;;;;;27.73;24.47;;;;;;;9.82;66.32;100203.97;5037121;28;20243;-78
2023/03/01 10:04:20;;;;;;;27.60;23.90;;;;;;;9.59;64.60;100198.94;5018439;28;20205;-80
2023/03/01 10:07:10;;;;;;;29.13;22.83;;;;;;;9.67;64.78;100196.91;5034365;28;20225;-79
2023/03/01 10:09:42;;;;;;;26.60;23.43;;;;;;;9.83;64.39;100181.53;5000654;28;20233;-79
2023/03/01 10:12:16;;;;;;;28.60;23.03;;;;;;;10.01;64.34;100176.44;5035799;28;20207;-78
2023/03/01 10:14:56;;;;;;;24.50;20.20;;;;;;;10.15;61.90;100181.66;5035468;28;20203;-78
2023/03/01 10:17:33;;;;;;;22.23;19.53;;;;;;;10.36;61.74;100177.97;5036683;28;20601;-81
2023/03/01 10:20:30;;;;;;;22.10;19.47;;;;;;;10.62;61.39;100179.84;4995377;28;20579;-79
2023/03/01 10:22:59;;;;;;;25.00;19.63;;;;;;;10.73;60.08;100171.16;5027922;28;20212;-78
2023/03/01 10:25:29;;;;;;;24.73;21.00;;;;;;;10.60;59.89;100163.13;5034349;28;20224;-78
2023/03/01 10:28:02;;;;;;;28.00;24.37;;;;;;;10.25;60.24;100159.00;5035919;28;20229;-78
2023/03/01 10:30:38;;;;;;;25.07;21.90;;;;;;;10.25;61.31;100157.16;5035458;28;20206;-78
2023/03/01 10:33:39;;;;;;;26.93;23.17;;;;;;;9.94;61.55;100152.31;5018195;28;20189;-78
2023/03/01 10:36:10;;;;;;;24.30;21.23;;;;;;;9.59;61.24;100148.13;5025625;28;20202;-78
2023/03/01 10:39:00;;;;;;;25.43;22.27;;;;;;;9.41;61.83;100145.16;5018409;28;20201;-78
2023/03/01 10:41:30;;;;;;;25.30;21.13;;;;;;;9.18;62.19;100135.63;5036543;28;20187;-77
2023/03/01 10:44:05;;;;;;;25.57;22.13;;;;;;;8.13;64.46;100134.00;5035829;28;20190;-78
2023/03/01 10:46:50;;;;;;;24.57;21.53;;;;;;;7.77;65.67;100129.56;5036635;28;20281;-79
2023/03/01 10:49:21;;;;;;;24.13;21.37;;;;;;;7.46;66.17;100123.69;5034397;28;20191;-78
2023/03/01 10:51:52;;;;;;;25.63;21.90;;;;;;;7.74;66.05;100127.28;5017662;28;20576;-78
2023/03/01 10:54:18;;;;;;;23.87;20.87;;;;;;;7.76;66.76;100117.22;5022739;28;20561;-79
2023/03/01 10:56:56;;;;;;;25.77;21.20;;;;;;;7.76;66.62;100108.41;5020663;28;20285;-79
2023/03/01 10:59:34;;;;;;;25.10;21.43;;;;;;;7.73;66.35;100108.78;5038308;28;20269;-79
2023/03/01 11:02:29;;;;;;;26.13;21.47;;;;;;;8.06;66.97;100109.09;5038564;28;20709;-78
2023/03/01 11:05:01;;;;;;;23.30;20.23;;;;;;;7.94;66.81;100104.28;5016650;28;20201;-80
2023/03/01 11:07:37;;;;;;;23.97;18.83;;;;;;;7.46;66.96;100099.69;5037897;28;20206;-79
2023/03/01 11:10:18;;;;;;;24.30;19.20;;;;;;;8.23;66.68;100099.81;5037663;28;20229;-79
2023/03/01 11:12:45;;;;;;;22.93;19.30;;;;;;;8.22;66.22;100095.47;5033621;28;20200;-80
2023/03/01 11:15:27;;;;;;;21.17;18.53;;;;;;;8.39;65.36;100099.56;5034251;28;20190;-79
2023/03/01 11:18:00;;;;;;;20.93;17.80;;;;;;;8.93;65.36;100093.53;5023021;28;20189;-79
2023/03/01 11:20:42;;;;;;;20.20;17.63;;;;;;;9.02;65.18;100108.38;5034215;28;20685;-78
2023/03/01 11:23:16;;;;;;;21.07;18.73;;;;;;;9.24;64.58;100100.03;5039477;28;20198;-79
2023/03/01 11:25:54;;;;;;;20.97;18.30;;;;;;;9.45;64.23;100087.59;5031436;28;20197;-79
2023/03/01 11:28:25;;;;;;;21.17;19.00;;;;;;;9.32;64.84;100095.56;5035021;28;20635;-79
2023/03/01 11:31:00;;;;;;;23.43;18.63;;;;;;;9.60;64.41;100091.75;5034753;28;20684;-79
2023/03/01 11:33:50;;;;;;;21.03;18.27;;;;;;;9.98;63.86;100083.16;5033410;28;20632;-81
2023/03/01 11:36:35;;;;;;;23.20;17.93;;;;;;;10.34;63.12;100086.28;5016882;28;20206;-80
2023/03/01 11:39:19;;;;;;;21.20;18.87;;;;;;;10.75;62.67;100093.25;5033061;28;20196;-79